Time;durP1;ratioP1;P1;durP2;ratioP2;P2;SDS_P1;SDS_P2;PMS_P1;PMS_P2;Temp;Humidity;BMP_temperature;BMP_pressure;BME280_temperature;BME280_humidity;BME280_pressure;Samples;Min_cycle;Max_cycle;Signal;HPM_P1;HPM_P2
2023/09/06 00:01:24;;;;;;;13.80;10.23;;;;;;;18.84;58.70;100934.13;5000683;28;97409;-77
2023/09/06 00:03:50;;;;;;;17.73;15.77;;;;;;;18.71;59.24;100934.81;5008489;28;98764;-78
2023/09/06 00:06:18;;;;;;;19.55;17.65;;;;;;;18.66;59.49;100942.22;5011232;28;98613;-77
2023/09/06 00:08:45;;;;;;;17.15;15.45;;;;;;;18.68;59.36;100948.31;5011122;28;97047;-77
2023/09/06 00:11:11;;;;;;;17.85;14.68;;;;;;;18.73;59.37;100953.34;5012245;28;97524;-77
2023/09/06 00:13:36;;;;;;;14.13;8.07;;;;;;;18.77;59.33;100954.91;5010543;28;99082;-77
2023/09/06 00:16:03;;;;;;;14.65;8.48;;;;;;;18.80;59.23;100952.09;5011207;28;97585;-77
2023/09/06 00:18:29;;;;;;;15.20;7.65;;;;;;;18.81;59.40;100945.81;5010271;28;97816;-77
2023/09/06 00:20:57;;;;;;;16.40;9.07;;;;;;;18.74;59.87;100939.16;5010859;28;96916;-78
2023/09/06 00:23:24;;;;;;;17.35;8.82;;;;;;;18.77;59.62;100944.28;5009412;28;98958;-78
2023/09/06 00:25:50;;;;;;;14.88;8.27;;;;;;;18.79;59.53;100945.03;5010993;28;98478;-77
2023/09/06 00:28:17;;;;;;;13.27;8.02;;;;;;;18.80;59.37;100943.25;5012947;28;96675;-77
2023/09/06 00:30:45;;;;;;;12.07;8.20;;;;;;;18.76;59.54;100939.88;5018046;28;96888;-77
2023/09/06 00:33:11;;;;;;;17.42;9.15;;;;;;;18.74;59.66;100942.66;5016034;28;99142;-77
2023/09/06 00:35:38;;;;;;;13.98;7.93;;;;;;;18.68;60.08;100948.31;5016422;28;98737;-77
2023/09/06 00:38:07;;;;;;;16.45;9.18;;;;;;;18.71;59.89;100942.81;5017313;28;97028;-77
2023/09/06 00:40:36;;;;;;;12.52;8.30;;;;;;;18.66;60.12;100955.50;5016789;28;96921;-77
2023/09/06 00:43:03;;;;;;;12.35;7.97;;;;;;;18.51;60.37;100946.59;5015444;28;100329;-77
2023/09/06 00:45:38;;;;;;;11.32;8.20;;;;;;;18.59;60.44;100940.88;5017794;28;98067;-78
2023/09/06 00:48:05;;;;;;;16.58;9.68;;;;;;;18.50;60.70;100944.03;5004613;28;96733;-78
2023/09/06 00:50:33;;;;;;;13.57;8.35;;;;;;;18.51;60.80;100943.09;5017923;28;96807;-77
2023/09/06 00:52:59;;;;;;;20.58;8.52;;;;;;;18.51;60.83;100943.09;5012634;28;97438;-77
2023/09/06 00:55:24;;;;;;;13.85;8.25;;;;;;;18.45;60.87;100940.78;5017364;28;98265;-78
2023/09/06 00:57:50;;;;;;;13.27;8.32;;;;;;;18.40;61.21;100938.38;5015705;28;97103;-77
2023/09/06 01:00:19;;;;;;;13.05;8.05;;;;;;;18.41;61.11;100941.91;5016869;28;96894;-77
2023/09/06 01:02:48;;;;;;;10.02;8.07;;;;;;;18.36;61.36;100936.00;4997757;28;98870;-77
2023/09/06 01:05:15;;;;;;;15.48;8.60;;;;;;;18.30;61.47;100932.75;5010794;28;100063;-77
2023/09/06 01:07:44;;;;;;;10.75;7.43;;;;;;;18.30;61.40;100927.44;5015350;28;96952;-77
2023/09/06 01:10:09;;;;;;;12.98;7.57;;;;;;;18.29;61.48;100938.97;5011459;28;96965;-77
2023/09/06 01:12:35;;;;;;;11.55;7.68;;;;;;;18.32;61.14;100930.88;5017035;28;99236;-78
2023/09/06 01:15:03;;;;;;;12.88;8.02;;;;;;;18.31;60.93;100929.13;5017009;28;98387;-77
2023/09/06 01:17:31;;;;;;;14.20;7.22;;;;;;;18.37;61.02;100935.91;5023319;28;97494;-77
2023/09/06 01:20:09;;;;;;;11.57;7.78;;;;;;;18.36;60.85;100928.88;5012018;28;96858;-77
2023/09/06 01:22:40;;;;;;;14.05;8.40;;;;;;;18.37;60.93;100935.06;5014649;28;100640;-77
2023/09/06 01:25:08;;;;;;;18.73;7.97;;;;;;;18.36;61.07;100926.22;5017403;28;98449;-78
2023/09/06 01:27:34;;;;;;;18.17;8.55;;;;;;;18.30;61.03;100927.44;4994966;28;96774;-77
2023/09/06 01:30:00;;;;;;;17.23;8.38;;;;;;;18.26;61.22;100928.53;5017324;28;97040;-77
2023/09/06 01:32:26;;;;;;;16.25;8.05;;;;;;;18.24;61.18;100922.47;5016227;28;99144;-77
2023/09/06 01:34:54;;;;;;;13.27;8.20;;;;;;;18.24;61.25;100924.28;5017030;28;97380;-77
2023/09/06 01:37:21;;;;;;;12.75;8.00;;;;;;;18.19;61.27;100926.31;5016498;28;97354;-77
2023/09/06 01:39:47;;;;;;;11.77;7.55;;;;;;;18.16;61.41;100930.00;5014201;28;96817;-77
2023/09/06 01:42:13;;;;;;;13.77;7.57;;;;;;;18.14;61.46;100933.69;5012050;28;98871;-78
2023/09/06 01:44:38;;;;;;;14.40;7.53;;;;;;;18.09;61.43;100933.94;5011932;28;97506;-77
2023/09/06 01:47:04;;;;;;;11.05;7.47;;;;;;;18.04;61.47;100928.91;5012871;28;96691;-78
2023/09/06 01:49:29;;;;;;;12.57;7.82;;;;;;;18.04;61.71;100928.91;5009553;28;97109;-77
2023/09/06 01:51:57;;;;;;;12.88;8.07;;;;;;;18.03;61.76;100928.97;5004280;28;100341;-77
2023/09/06 01:54:23;;;;;;;13.18;7.68;;;;;;;17.97;61.87;100938.13;5013365;28;98542;-77
2023/09/06 01:56:49;;;;;;;11.00;7.43;;;;;;;18.00;61.78;100935.31;5012206;28;97222;-77
2023/09/06 01:59:14;;;;;;;12.82;8.35;;;;;;;17.91;62.18;100934.97;5001172;28;97264;-78
2023/09/06 02:01:40;;;;;;;11.40;8.18;;;;;;;17.91;61.97;100935.81;5011742;28;100918;-77
2023/09/06 02:04:06;;;;;;;14.10;8.40;;;;;;;17.89;62.28;100935.06;5013220;28;98283;-77
2023/09/06 02:06:31;;;;;;;13.27;8.00;;;;;;;17.90;61.88;100936.75;5013224;28;96769;-77
2023/09/06 02:08:57;;;;;;;18.27;8.38;;;;;;;17.77;62.33;100930.38;5008268;28;96959;-77
2023/09/06 02:11:22;;;;;;;12.65;8.40;;;;;;;17.77;62.35;100930.38;5013187;28;97301;-77
2023/09/06 02:13:48;;;;;;;10.60;7.13;;;;;;;17.80;62.04;100924.91;5011727;28;100503;-77
2023/09/06 02:16:16;;;;;;;11.23;7.68;;;;;;;17.80;61.95;100914.28;5012994;28;96762;-77
2023/09/06 02:18:41;;;;;;;15.95;9.65;;;;;;;17.74;61.73;100909.28;5011883;28;97121;-77
2023/09/06 02:21:07;;;;;;;13.65;9.43;;;;;;;17.73;61.91;100910.25;5012143;28;98688;-77
2023/09/06 02:23:35;;;;;;;15.98;10.00;;;;;;;17.70;61.78;100918.38;4997605;28;99851;-77
2023/09/06 02:26:00;;;;;;;15.30;10.93;;;;;;;17.70;61.67;100913.91;4999638;28;97363;-77
2023/09/06 02:28:26;;;;;;;21.88;14.02;;;;;;;17.67;61.60;100918.53;5009935;28;96828;-77
2023/09/06 02:30:51;;;;;;;12.95;8.32;;;;;;;17.60;61.89;100918.03;5012654;28;98254;-77
2023/09/06 02:33:17;;;;;;;12.45;7.72;;;;;;;17.56;61.60;100924.41;5012303;28;98249;-77
2023/09/06 02:35:43;;;;;;;10.57;7.15;;;;;;;17.54;61.74;100932.47;5012859;28;96858;-77
2023/09/06 02:38:10;;;;;;;11.80;7.28;;;;;;;17.52;61.90;100936.16;5012795;28;96952;-77
2023/09/06 02:40:37;;;;;;;11.50;6.70;;;;;;;17.51;61.65;100931.75;5012926;28;98588;-77
2023/09/06 02:43:03;;;;;;;16.50;11.80;;;;;;;17.39;61.79;100931.50;5009484;28;98593;-77
2023/09/06 02:45:49;;;;;;;11.80;6.88;;;;;;;17.39;61.99;100928.84;5011153;28;97252;-77
2023/09/06 02:48:18;;;;;;;10.10;7.07;;;;;;;17.36;61.87;100933.44;5000729;28;96909;-77
2023/09/06 02:50:44;;;;;;;11.02;6.65;;;;;;;17.33;62.08;100931.78;5011877;28;98612;-77
2023/09/06 02:53:22;;;;;;;10.93;7.32;;;;;;;17.27;62.36;100940.06;5011511;28;98243;-77
2023/09/06 02:55:51;;;;;;;9.35;7.28;;;;;;;17.18;62.46;100932.59;5011721;28;97233;-77
2023/09/06 02:58:25;;;;;;;11.48;6.97;;;;;;;17.12;62.59;100933.78;5012277;28;97074;-77
2023/09/06 03:00:55;;;;;;;12.65;7.88;;;;;;;17.08;62.61;100932.22;5011838;28;98696;-77
2023/09/06 03:03:21;;;;;;;10.05;7.35;;;;;;;17.15;62.62;100935.41;5011466;28;98731;-77
2023/09/06 03:05:47;;;;;;;12.95;7.65;;;;;;;17.10;62.34;100935.63;5010970;28;96767;-77
2023/09/06 03:08:15;;;;;;;10.35;7.55;;;;;;;17.13;62.39;100939.94;5010803;28;96935;-77
2023/09/06 03:10:44;;;;;;;13.05;7.90;;;;;;;17.15;62.38;100944.22;5010004;28;100348;-76
2023/09/06 03:13:10;;;;;;;13.90;7.65;;;;;;;17.12;62.34;100949.69;5012144;28;98392;-77
2023/09/06 03:15:38;;;;;;;12.13;7.60;;;;;;;17.10;62.42;100932.13;5010871;28;97192;-76
2023/09/06 03:18:07;;;;;;;11.82;7.78;;;;;;;17.10;62.67;100951.56;5012057;28;97474;-77
2023/09/06 03:21:05;;;;;;;14.10;8.20;;;;;;;17.05;62.60;100947.44;5010628;28;100430;-77
2023/09/06 03:23:44;;;;;;;15.75;9.07;;;;;;;17.03;62.81;100957.28;5008864;28;100301;-77
2023/09/06 03:26:10;;;;;;;13.38;8.02;;;;;;;17.01;62.62;100959.97;4997247;28;96991;-76
2023/09/06 03:28:40;;;;;;;12.43;8.25;;;;;;;16.97;62.84;100961.94;5010983;28;96835;-77
2023/09/06 03:31:12;;;;;;;12.85;7.95;;;;;;;16.96;62.87;100967.34;5009901;28;100656;-77
2023/09/06 03:33:41;;;;;;;11.60;8.18;;;;;;;16.89;63.11;100957.97;5010020;28;100195;-76
2023/09/06 03:36:09;;;;;;;17.08;8.40;;;;;;;16.84;63.04;100952.03;5010969;28;97051;-77
2023/09/06 03:38:36;;;;;;;10.40;7.78;;;;;;;16.83;63.33;100959.13;5021713;28;96836;-76
2023/09/06 03:41:06;;;;;;;9.27;7.50;;;;;;;16.84;63.24;100968.81;5012045;28;99023;-76
2023/09/06 03:43:33;;;;;;;11.00;9.00;;;;;;;16.85;63.27;100962.56;5011955;28;98353;-76
2023/09/06 03:46:07;;;;;;;9.40;8.23;;;;;;;16.81;63.43;100968.09;5010223;28;96835;-77
2023/09/06 03:48:33;;;;;;;13.20;9.43;;;;;;;16.83;63.24;100969.72;4999351;28;96856;-76
2023/09/06 03:50:59;;;;;;;11.43;8.60;;;;;;;16.84;63.21;100973.22;5010297;28;97387;-77
2023/09/06 03:53:26;;;;;;;16.65;9.40;;;;;;;16.83;62.86;100967.06;5011974;28;98540;-77
2023/09/06 03:55:57;;;;;;;14.60;12.25;;;;;;;16.79;62.89;100970.81;5010001;28;96814;-76
2023/09/06 03:58:24;;;;;;;15.48;12.50;;;;;;;16.70;63.37;100977.41;4990618;28;96888;-76
2023/09/06 04:00:52;;;;;;;10.27;7.85;;;;;;;16.71;63.48;100971.16;5007737;28;100282;-77
2023/09/06 04:03:26;;;;;;;11.73;7.53;;;;;;;16.70;63.62;100969.47;5005624;28;100203;-77
2023/09/06 04:05:51;;;;;;;11.85;7.65;;;;;;;16.68;63.44;100965.16;5021473;28;96799;-76
2023/09/06 04:08:18;;;;;;;14.10;8.88;;;;;;;16.67;63.60;100961.66;5009133;28;97621;-77
2023/09/06 04:10:49;;;;;;;14.88;8.80;;;;;;;16.69;63.51;100959.75;5000375;28;100110;-77
2023/09/06 04:13:14;;;;;;;13.88;7.95;;;;;;;16.72;63.34;100966.72;5006308;28;98434;-76
2023/09/06 04:15:42;;;;;;;14.90;7.80;;;;;;;16.71;63.48;100968.50;5011518;28;96836;-77
2023/09/06 04:18:10;;;;;;;13.02;7.93;;;;;;;16.66;63.32;100965.22;5010149;28;96873;-76
2023/09/06 04:20:46;;;;;;;13.05;7.60;;;;;;;16.67;63.13;100958.16;5008911;28;100136;-77
2023/09/06 04:23:14;;;;;;;11.52;8.25;;;;;;;16.61;63.68;100959.31;5007535;28;100153;-76
2023/09/06 04:25:44;;;;;;;12.13;8.18;;;;;;;16.49;63.64;100967.84;5007802;28;97852;-75
2023/09/06 04:28:15;;;;;;;15.07;8.02;;;;;;;16.56;63.68;100963.97;5009407;28;97431;-76
2023/09/06 04:30:43;;;;;;;12.82;8.07;;;;;;;16.62;63.42;100965.47;5008723;28;100786;-76
2023/09/06 04:33:14;;;;;;;19.45;8.18;;;;;;;16.63;63.47;100969.81;5008965;28;100333;-76
2023/09/06 04:35:46;;;;;;;12.43;8.73;;;;;;;16.55;63.85;100969.34;5009637;28;97366;-74
2023/09/06 04:38:15;;;;;;;14.23;9.07;;;;;;;16.49;63.72;100975.78;5001790;28;97017;-75
2023/09/06 04:40:44;;;;;;;17.85;9.13;;;;;;;16.43;63.93;100976.09;5009639;28;100369;-75
2023/09/06 04:43:15;;;;;;;10.85;8.35;;;;;;;16.41;64.05;100976.19;5010582;28;100323;-74
2023/09/06 04:45:41;;;;;;;14.65;9.60;;;;;;;16.45;64.09;100974.22;5009374;28;96934;-75
2023/09/06 04:48:10;;;;;;;15.27;9.50;;;;;;;16.37;64.06;100979.03;5010501;28;96824;-75
2023/09/06 04:50:39;;;;;;;14.88;9.13;;;;;;;16.40;64.18;100982.38;5004428;28;98825;-75
2023/09/06 04:53:11;;;;;;;13.85;9.35;;;;;;;16.48;64.07;100985.53;5009259;28;99291;-75
2023/09/06 04:55:38;;;;;;;14.37;9.47;;;;;;;16.58;63.97;100990.38;5010716;28;96825;-75
2023/09/06 04:58:08;;;;;;;14.77;9.60;;;;;;;16.66;63.75;100991.72;5009323;28;96882;-75
2023/09/06 05:00:43;;;;;;;12.65;9.65;;;;;;;16.82;63.45;100991.03;5010289;28;99082;-75
2023/09/06 05:03:12;;;;;;;11.27;9.52;;;;;;;16.98;63.21;101003.44;5009056;28;98127;-76
2023/09/06 05:05:39;;;;;;;16.20;10.15;;;;;;;17.08;63.01;101000.34;5004749;28;97077;-75
2023/09/06 05:08:05;;;;;;;15.23;9.18;;;;;;;17.19;62.96;101000.63;5009586;28;97031;-76
2023/09/06 05:10:35;;;;;;;15.90;9.32;;;;;;;17.36;62.72;101005.94;5003679;28;100521;-76
2023/09/06 05:13:03;;;;;;;13.18;10.10;;;;;;;17.50;62.33;101004.38;5003192;28;100112;-76
2023/09/06 05:15:28;;;;;;;16.40;9.65;;;;;;;17.69;62.17;101006.94;5009487;28;97097;-76
2023/09/06 05:17:54;;;;;;;15.00;9.98;;;;;;;17.80;61.79;101007.22;5012036;28;97412;-75
2023/09/06 05:20:30;;;;;;;13.93;9.35;;;;;;;17.88;60.98;101007.69;5012597;28;99264;-76
2023/09/06 05:23:10;;;;;;;18.90;10.15;;;;;;;18.07;60.94;101002.25;5013355;28;97876;-75
2023/09/06 05:25:36;;;;;;;12.88;10.70;;;;;;;18.21;60.33;101001.47;5013649;28;97140;-75
2023/09/06 05:28:10;;;;;;;16.65;13.35;;;;;;;18.41;59.68;101005.69;4995429;28;96813;-75
2023/09/06 05:30:38;;;;;;;18.55;13.15;;;;;;;18.65;59.20;101004.31;5007477;28;100839;-75
2023/09/06 05:33:05;;;;;;;16.77;12.93;;;;;;;18.75;58.82;101010.84;5012003;28;100054;-75
2023/09/06 05:35:31;;;;;;;13.88;10.90;;;;;;;18.92;58.54;101009.88;5008969;28;96854;-75
2023/09/06 05:37:57;;;;;;;20.73;17.23;;;;;;;19.03;58.30;101006.59;5011589;28;96911;-75
2023/09/06 05:40:23;;;;;;;25.35;14.02;;;;;;;19.13;58.00;101006.91;5012616;28;97419;-75
2023/09/06 05:42:52;;;;;;;20.92;12.88;;;;;;;19.36;57.39;101006.41;5019727;28;100192;-76
2023/09/06 05:45:21;;;;;;;14.13;12.55;;;;;;;19.48;56.96;101004.81;5005032;28;96817;-76
2023/09/06 05:47:48;;;;;;;18.52;12.88;;;;;;;19.80;56.50;101010.84;5008747;28;97272;-76
2023/09/06 05:50:14;;;;;;;14.45;11.07;;;;;;;20.16;55.53;101009.53;4994816;28;100825;-75
2023/09/06 05:52:41;;;;;;;17.50;15.55;;;;;;;20.08;54.80;101011.81;5010495;28;100193;-75
2023/09/06 05:55:07;;;;;;;14.43;10.75;;;;;;;20.50;54.14;101010.00;5011591;28;96820;-77
2023/09/06 05:57:33;;;;;;;16.75;10.38;;;;;;;20.33;54.35;101005.75;4999494;28;96955;-78
2023/09/06 05:59:59;;;;;;;16.55;11.82;;;;;;;20.25;54.73;101011.59;4984957;28;100774;-78
2023/09/06 06:02:26;;;;;;;13.43;12.02;;;;;;;20.62;54.07;101013.72;5011325;28;99644;-78
2023/09/06 06:04:52;;;;;;;13.07;10.68;;;;;;;20.43;54.31;101014.91;4994574;28;97449;-78
2023/09/06 06:07:18;;;;;;;16.58;15.07;;;;;;;20.40;54.45;101012.44;5004047;28;96985;-78
2023/09/06 06:09:44;;;;;;;13.75;10.80;;;;;;;20.84;53.66;101014.03;5005398;28;100875;-78
2023/09/06 06:12:10;;;;;;;12.93;9.43;;;;;;;21.40;52.53;101011.22;5002088;28;97823;-78
2023/09/06 06:14:36;;;;;;;13.05;10.75;;;;;;;21.83;51.61;101014.44;5010938;28;96720;-78
2023/09/06 06:17:05;;;;;;;10.68;8.73;;;;;;;22.29;50.47;101013.88;5012706;28;97402;-79
2023/09/06 06:19:31;;;;;;;11.25;10.10;;;;;;;22.79;49.27;101008.44;5012536;28;99188;-78
2023/09/06 06:21:56;;;;;;;15.70;10.38;;;;;;;23.75;47.51;101015.47;5011338;28;98286;-78
2023/09/06 06:24:22;;;;;;;15.93;9.40;;;;;;;24.52;45.98;101016.44;5005937;28;96692;-75
2023/09/06 06:26:49;;;;;;;12.30;6.80;;;;;;;25.64;44.17;101000.81;5012117;28;96942;-76
2023/09/06 06:29:14;;;;;;;13.05;6.47;;;;;;;26.90;42.09;101005.75;5012222;28;98597;-75
2023/09/06 06:31:40;;;;;;;8.10;6.18;;;;;;;28.04;39.59;101006.69;5008028;28;98847;-75
2023/09/06 06:34:05;;;;;;;13.23;6.28;;;;;;;29.61;37.23;101003.50;5012916;28;96785;-75
2023/09/06 06:36:31;;;;;;;15.55;6.47;;;;;;;31.46;34.30;101000.84;5005772;28;96924;-76
2023/09/06 06:38:57;;;;;;;14.77;5.93;;;;;;;33.08;32.00;100995.66;5012493;28;98591;-76
2023/09/06 06:41:23;;;;;;;14.68;13.30;;;;;;;33.19;31.01;100998.97;5012031;28;98341;-76
2023/09/06 06:43:49;;;;;;;16.92;7.30;;;;;;;34.63;29.75;100992.22;5012064;28;97693;-76
2023/09/06 06:46:35;;;;;;;14.82;13.27;;;;;;;36.08;27.83;100993.56;5012546;28;97334;-76
2023/09/06 06:49:02;;;;;;;13.20;5.88;;;;;;;36.83;27.09;100999.88;5011250;28;98717;-76
2023/09/06 06:51:40;;;;;;;10.02;5.72;;;;;;;37.64;25.08;100998.81;5007280;28;98293;-76
2023/09/06 06:54:10;;;;;;;10.13;5.13;;;;;;;38.32;24.93;100996.50;5005846;28;96743;-76
2023/09/06 06:56:37;;;;;;;9.25;5.50;;;;;;;38.49;24.36;100996.88;5010893;28;96854;-76
2023/09/06 06:59:03;;;;;;;10.38;9.43;;;;;;;39.27;23.72;101003.88;5012367;28;98679;-76
2023/09/06 07:01:30;;;;;;;6.75;5.03;;;;;;;39.58;23.48;101000.22;5011728;28;98524;-76
2023/09/06 07:04:00;;;;;;;9.18;4.88;;;;;;;40.21;23.00;101002.69;5011396;28;96824;-76
2023/09/06 07:06:25;;;;;;;;;;;;;;;40.40;22.67;100992.47;5012297;28;97172;-76
2023/09/06 07:08:52;;;;;;;12.25;4.45;;;;;;;39.50;23.24;100995.03;5010159;28;99030;-77
2023/09/06 07:11:18;;;;;;;7.55;5.25;;;;;;;40.48;22.33;100996.81;5001379;28;98464;-77
2023/09/06 07:14:00;;;;;;;7.80;5.28;;;;;;;40.11;22.24;100998.78;5018599;28;96809;-77
2023/09/06 07:16:27;;;;;;;12.55;5.07;;;;;;;41.49;21.19;100992.25;5016480;28;96710;-76
2023/09/06 07:18:53;;;;;;;6.82;4.68;;;;;;;41.68;21.38;100992.09;5011839;28;98682;-77
2023/09/06 07:21:18;;;;;;;8.48;4.88;;;;;;;41.91;20.51;100988.47;5011047;28;98445;-72
2023/09/06 07:23:45;;;;;;;11.02;4.82;;;;;;;41.34;20.67;101008.41;5013459;28;97376;-73
2023/09/06 07:26:11;;;;;;;6.50;4.05;;;;;;;41.42;21.23;100994.25;5012409;28;96804;-73
2023/09/06 07:28:38;;;;;;;5.35;4.28;;;;;;;40.58;21.15;100994.38;5008706;28;97876;-72
2023/09/06 07:31:05;;;;;;;7.85;4.22;;;;;;;41.76;20.71;100989.81;5011889;28;98597;-73
2023/09/06 07:33:45;;;;;;;8.13;3.72;;;;;;;41.88;20.58;100995.28;5012879;28;97082;-74
2023/09/06 07:36:14;;;;;;;7.28;4.13;;;;;;;42.68;20.16;100994.41;5010958;28;96966;-74
2023/09/06 07:39:22;;;;;;;8.43;4.50;;;;;;;42.41;19.62;100993.34;5021417;28;100393;-73
2023/09/06 07:42:56;;;;;;;6.72;4.53;;;;;;;42.07;19.84;100990.47;5019386;28;98158;-72
2023/09/06 07:45:47;;;;;;;14.07;13.07;;;;;;;42.78;19.63;100987.41;5015277;28;96870;-71
2023/09/06 07:48:34;;;;;;;9.15;4.20;;;;;;;43.15;19.32;100983.09;5004134;28;97220;-70
2023/09/06 07:51:03;;;;;;;5.97;4.15;;;;;;;44.61;18.50;100979.94;5008500;28;98620;-71
2023/09/06 07:53:50;;;;;;;6.72;3.92;;;;;;;45.26;18.36;100983.53;5029532;28;97275;-71
2023/09/06 07:56:28;;;;;;;7.90;3.92;;;;;;;45.89;17.87;100978.06;5030358;27;96940;-70
2023/09/06 07:59:00;;;;;;;9.65;4.15;;;;;;;46.45;17.54;100967.94;5017864;28;97051;-71
2023/09/06 08:01:57;;;;;;;8.52;4.60;;;;;;;46.48;17.44;100974.91;5017051;28;97699;-71
2023/09/06 08:05:21;;;;;;;6.82;3.70;;;;;;;46.05;17.30;100968.69;5014109;28;97670;-71
2023/09/06 08:08:31;;;;;;;5.70;3.45;;;;;;;47.04;16.75;100969.41;5022049;28;96823;-71
2023/09/06 08:11:31;;;;;;;6.80;4.32;;;;;;;47.27;16.09;100972.66;5017897;28;97921;-71
2023/09/06 08:14:03;;;;;;;5.05;3.70;;;;;;;47.79;16.00;100977.78;5025106;27;97795;-71
2023/09/06 08:16:37;;;;;;;6.47;3.80;;;;;;;47.58;15.82;100977.03;5014307;28;96812;-71
2023/09/06 08:19:08;;;;;;;4.78;3.65;;;;;;;47.81;15.62;100977.53;5025500;28;96835;-72
2023/09/06 08:21:58;;;;;;;4.25;3.35;;;;;;;48.36;15.21;100975.53;5021101;28;97518;-71
2023/09/06 08:24:40;;;;;;;8.98;3.63;;;;;;;48.59;14.97;100982.34;5018900;28;97705;-71
2023/09/06 08:27:29;;;;;;;4.85;3.53;;;;;;;48.81;15.45;100983.81;5022269;27;96739;-71
2023/09/06 08:30:16;;;;;;;14.65;13.35;;;;;;;47.91;15.58;100971.88;5023081;28;97203;-71
2023/09/06 08:32:52;;;;;;;5.60;3.78;;;;;;;49.07;15.06;100981.66;5014792;28;97820;-72
2023/09/06 08:35:33;;;;;;;5.85;3.90;;;;;;;48.10;15.17;100979.59;5016529;28;98868;-71
2023/09/06 08:38:16;;;;;;;4.63;4.05;;;;;;;49.23;15.04;100985.97;5019653;28;97506;-72
2023/09/06 08:40:50;;;;;;;5.50;3.80;;;;;;;49.02;14.57;100982.56;5008738;28;97379;-72
2023/09/06 08:43:18;;;;;;;4.55;3.30;;;;;;;47.89;15.10;100984.44;5012023;28;96964;-72
2023/09/06 08:45:50;;;;;;;8.65;3.42;;;;;;;50.04;13.94;100980.53;5006500;28;98932;-72
2023/09/06 08:48:17;;;;;;;4.60;3.47;;;;;;;50.91;14.28;100979.13;5008474;28;97504;-71
2023/09/06 08:50:51;;;;;;;5.78;3.55;;;;;;;51.51;13.58;100979.13;5012990;28;97543;-72
2023/09/06 08:53:27;;;;;;;7.20;3.90;;;;;;;49.89;13.99;100986.28;5014178;28;97101;-72
2023/09/06 08:55:54;;;;;;;5.70;3.58;;;;;;;50.46;13.88;100985.19;5009371;28;98911;-72
2023/09/06 08:58:21;;;;;;;3.70;3.40;;;;;;;50.97;13.49;100975.16;4996482;28;98638;-72
2023/09/06 09:00:47;;;;;;;4.82;3.53;;;;;;;46.93;15.64;100989.94;5008878;28;97104;-72
2023/09/06 09:03:13;;;;;;;5.82;3.97;;;;;;;48.91;14.94;100987.38;5010928;28;97436;-71
2023/09/06 09:05:38;;;;;;;7.18;3.90;;;;;;;47.82;15.33;100982.78;5009475;28;98796;-71
2023/09/06 09:08:04;;;;;;;4.15;3.55;;;;;;;45.76;15.97;100985.78;5007259;28;98326;-73
2023/09/06 09:10:31;;;;;;;7.28;3.70;;;;;;;45.22;16.30;100991.56;5011536;28;97480;-72
2023/09/06 09:12:58;;;;;;;6.47;2.90;;;;;;;43.12;17.19;100980.81;5012599;28;96849;-72
2023/09/06 09:15:27;;;;;;;3.95;3.20;;;;;;;41.18;19.08;100990.66;5010061;28;98666;-72
2023/09/06 09:17:54;;;;;;;6.03;3.17;;;;;;;43.69;17.37;100984.41;5008917;28;99134;-72
2023/09/06 09:20:20;;;;;;;3.88;2.83;;;;;;;46.82;15.47;100980.75;5002089;28;96901;-71
2023/09/06 09:22:47;;;;;;;5.57;3.10;;;;;;;44.29;16.71;100989.00;5012044;28;97325;-72
2023/09/06 09:25:23;;;;;;;8.43;3.03;;;;;;;42.76;18.24;100984.06;5015834;28;97638;-72
2023/09/06 09:27:58;;;;;;;3.05;2.67;;;;;;;47.48;15.17;100998.47;5019041;28;96922;-72
2023/09/06 09:30:43;;;;;;;3.47;2.80;;;;;;;48.64;14.59;100992.59;5019425;28;96810;-72
2023/09/06 09:34:25;;;;;;;6.70;3.22;;;;;;;47.57;15.06;100988.44;5023046;28;96901;-72
2023/09/06 09:37:29;;;;;;;4.07;3.00;;;;;;;45.59;15.82;101010.09;5016120;28;97651;-72
2023/09/06 09:40:18;;;;;;;3.15;2.83;;;;;;;48.35;14.82;101000.88;5016363;28;97710;-72
2023/09/06 09:42:57;;;;;;;4.60;2.80;;;;;;;48.14;14.65;101002.94;5029543;28;97088;-72
2023/09/06 09:45:50;;;;;;;6.95;3.47;;;;;;;45.47;15.77;101003.88;5014252;28;96861;-72
2023/09/06 09:48:28;;;;;;;3.85;3.10;;;;;;;43.60;16.48;101006.94;5013196;28;97848;-72
2023/09/06 09:50:54;;;;;;;3.72;3.22;;;;;;;40.78;19.14;101009.72;5014037;28;98590;-71
2023/09/06 09:53:32;;;;;;;4.15;3.75;;;;;;;37.10;22.31;101012.56;5017297;28;97308;-71
2023/09/06 09:56:18;;;;;;;5.13;2.90;;;;;;;37.86;22.27;100997.50;5037974;28;97142;-71
2023/09/06 09:58:56;;;;;;;4.22;3.28;;;;;;;34.75;24.44;101000.72;4993388;28;97750;-70
2023/09/06 10:01:32;;;;;;;3.65;3.00;;;;;;;34.85;25.35;101002.09;5009026;28;100808;-71
2023/09/06 10:04:06;;;;;;;9.05;3.22;;;;;;;35.42;24.54;100996.69;5017666;28;96939;-71
2023/09/06 10:06:32;;;;;;;5.05;3.17;;;;;;;33.31;26.64;100998.34;5015862;28;97270;-71
2023/09/06 10:09:12;;;;;;;4.33;3.27;;;;;;;33.46;26.26;101003.81;5015649;28;97656;-69
2023/09/06 10:11:39;;;;;;;7.38;2.90;;;;;;;32.31;28.42;101009.22;5012976;28;97302;-72
2023/09/06 10:14:06;;;;;;;6.30;2.95;;;;;;;32.40;28.54;101004.56;5012394;28;97620;-72
2023/09/06 10:16:32;;;;;;;4.97;3.53;;;;;;;32.80;28.31;101005.38;5013882;28;96828;-72
2023/09/06 10:18:58;;;;;;;4.00;2.97;;;;;;;32.56;28.31;101006.41;5013533;28;98567;-72
2023/09/06 10:21:24;;;;;;;4.03;3.08;;;;;;;32.33;28.25;101003.63;5012794;28;98770;-72
2023/09/06 10:23:50;;;;;;;3.70;3.20;;;;;;;32.42;29.48;101007.97;5012038;28;97279;-74
2023/09/06 10:26:34;;;;;;;6.50;3.03;;;;;;;31.40;31.32;101005.06;5013523;28;96912;-74
2023/09/06 10:29:00;;;;;;;7.53;3.35;;;;;;;31.72;30.69;101004.16;5011814;28;100276;-78
2023/09/06 10:31:51;;;;;;;5.60;3.58;;;;;;;31.91;30.60;101005.69;5013789;28;98473;-78
2023/09/06 10:34:23;;;;;;;6.22;3.20;;;;;;;32.10;32.03;101011.69;5009644;28;97666;-77
2023/09/06 10:37:00;;;;;;;4.18;2.55;;;;;;;32.14;31.12;101002.16;5014839;28;97210;-78
2023/09/06 10:39:39;;;;;;;4.65;3.55;;;;;;;31.83;30.86;101008.38;5015829;28;97645;-77
2023/09/06 10:42:11;;;;;;;5.65;3.40;;;;;;;31.84;31.71;101007.34;5014460;28;99980;-77
2023/09/06 10:45:00;;;;;;;6.28;4.00;;;;;;;31.22;31.54;101009.81;5010580;28;97231;-77
2023/09/06 10:47:32;;;;;;;4.97;3.20;;;;;;;30.95;32.06;101003.72;5013630;28;96876;-77
2023/09/06 10:50:13;;;;;;;3.88;3.20;;;;;;;30.83;32.87;101007.75;5021837;28;97753;-78
2023/09/06 10:53:01;;;;;;;8.20;3.30;;;;;;;30.83;32.38;101013.19;5020587;28;97600;-78
2023/09/06 10:55:51;;;;;;;6.55;3.08;;;;;;;29.88;33.36;101002.53;5017214;28;96995;-77
2023/09/06 10:58:30;;;;;;;5.60;3.20;;;;;;;30.21;33.91;101008.09;5016433;28;96743;-77
2023/09/06 11:01:36;;;;;;;9.05;3.30;;;;;;;30.35;34.46;101009.34;5019886;28;98775;-77
2023/09/06 11:04:24;;;;;;;4.20;3.80;;;;;;;30.14;33.58;100997.06;5033356;28;97495;-77
2023/09/06 11:06:53;;;;;;;11.27;10.07;;;;;;;29.65;33.81;100998.69;5012445;28;97209;-77
2023/09/06 11:09:19;;;;;;;6.95;3.13;;;;;;;29.63;33.58;101004.22;5013354;28;96866;-77
2023/09/06 11:12:03;;;;;;;5.90;2.97;;;;;;;29.72;33.67;101005.97;5031547;28;98728;-77
2023/09/06 11:14:33;;;;;;;5.10;3.00;;;;;;;29.81;33.96;100997.91;5019121;28;99456;-77
2023/09/06 11:17:02;;;;;;;5.70;3.33;;;;;;;29.69;33.45;101002.75;5014849;28;96825;-77
2023/09/06 11:19:31;;;;;;;5.50;3.65;;;;;;;29.44;33.42;100996.28;5010334;28;97046;-76
2023/09/06 11:22:10;;;;;;;7.07;3.43;;;;;;;29.26;32.90;100996.34;5011319;28;100740;-76
2023/09/06 11:24:37;;;;;;;5.03;3.00;;;;;;;29.18;33.42;101005.25;5013552;28;98292;-76
2023/09/06 11:27:29;;;;;;;5.30;2.75;;;;;;;29.01;33.52;100995.28;5018219;28;96759;-76
2023/09/06 11:29:57;;;;;;;3.83;2.83;;;;;;;29.00;34.18;100990.84;5011224;28;97195;-77
2023/09/06 11:32:23;;;;;;;5.35;3.33;;;;;;;29.04;34.16;100995.84;5011726;28;99356;-76
2023/09/06 11:34:49;;;;;;;5.55;5.00;;;;;;;28.91;33.36;100991.78;5011401;28;98678;-76
2023/09/06 11:37:15;;;;;;;17.95;16.70;;;;;;;28.99;33.05;100986.47;5004117;28;97352;-76
2023/09/06 11:39:45;;;;;;;10.90;10.07;;;;;;;29.05;33.73;100977.75;5011134;28;97098;-76